Time;durP1;ratioP1;P1;durP2;ratioP2;P2;SDS_P1;SDS_P2;PMS_P1;PMS_P2;Temp;Humidity;BMP_temperature;BMP_pressure;BME280_temperature;BME280_humidity;BME280_pressure;Samples;Min_cycle;Max_cycle;Signal;HPM_P1;HPM_P2
2021/11/23 00:02:24;;;;;;;8.43;5.57;;;-0.30;97.30;;;;;;5094945;28;20187;-80
2021/11/23 00:04:50;;;;;;;10.27;5.80;;;-0.30;97.30;;;;;;5083227;28;20178;-80
2021/11/23 00:07:16;;;;;;;11.90;5.80;;;-0.30;97.30;;;;;;5094902;28;21061;-81
2021/11/23 00:09:41;;;;;;;16.30;5.33;;;-0.20;97.30;;;;;;5095215;28;20448;-80
2021/11/23 00:12:07;;;;;;;8.30;4.90;;;-0.20;97.30;;;;;;5095106;28;20182;-79
2021/11/23 00:14:33;;;;;;;8.27;5.53;;;-0.20;97.30;;;;;;5094832;28;20186;-80
2021/11/23 00:16:59;;;;;;;18.10;5.83;;;-0.20;97.30;;;;;;5098963;28;20818;-81
2021/11/23 00:19:24;;;;;;;10.00;5.57;;;-0.20;97.30;;;;;;5107101;28;20547;-80
2021/11/23 00:21:50;;;;;;;9.90;4.80;;;-0.20;97.30;;;;;;5094896;28;20189;-81
2021/11/23 00:24:16;;;;;;;12.60;5.10;;;-0.20;97.30;;;;;;5095146;28;20179;-80
2021/11/23 00:26:41;;;;;;;13.00;5.30;;;-0.20;97.30;;;;;;5096061;28;20882;-80
2021/11/23 00:29:07;;;;;;;9.20;4.60;;;-0.20;97.30;;;;;;5094676;28;20218;-80
2021/11/23 00:31:32;;;;;;;15.10;5.53;;;-0.20;97.30;;;;;;5094283;28;20181;-81
2021/11/23 00:33:58;;;;;;;11.27;5.47;;;-0.20;97.30;;;;;;5094565;28;20583;-81
2021/11/23 00:36:24;;;;;;;12.30;4.93;;;-0.20;97.30;;;;;;5094627;28;20190;-81
2021/11/23 00:38:49;;;;;;;7.87;4.70;;;-0.20;97.30;;;;;;5093508;28;20202;-81
2021/11/23 00:41:19;;;;;;;8.70;4.70;;;-0.20;97.30;;;;;;5094629;28;20167;-81
2021/11/23 00:43:46;;;;;;;9.87;5.10;;;-0.20;97.30;;;;;;5095083;28;20180;-81
2021/11/23 00:46:12;;;;;;;8.50;4.37;;;-0.20;97.30;;;;;;5094147;28;20802;-81
2021/11/23 00:48:37;;;;;;;8.80;4.70;;;-0.20;97.30;;;;;;5081812;28;20413;-81
2021/11/23 00:51:04;;;;;;;12.03;5.10;;;-0.20;97.30;;;;;;5073693;28;20946;-81
2021/11/23 00:53:33;;;;;;;9.53;4.40;;;-0.20;97.30;;;;;;5073960;28;20661;-81
2021/11/23 00:55:59;;;;;;;10.50;4.53;;;-0.20;97.30;;;;;;5074179;28;20444;-81
2021/11/23 00:58:25;;;;;;;5.20;3.83;;;-0.10;97.30;;;;;;5074005;28;20420;-80
2021/11/23 01:00:51;;;;;;;9.07;4.80;;;-0.10;97.30;;;;;;5074979;28;20417;-80
2021/11/23 01:03:17;;;;;;;6.00;4.37;;;-0.10;97.30;;;;;;5074467;28;20849;-80
2021/11/23 01:05:47;;;;;;;7.60;4.00;;;-0.10;97.30;;;;;;5074563;28;20438;-81
2021/11/23 01:08:17;;;;;;;6.40;4.77;;;-0.10;97.30;;;;;;5074015;28;20425;-81
2021/11/23 01:10:43;;;;;;;6.70;4.43;;;-0.10;97.30;;;;;;5074195;28;20522;-81
2021/11/23 01:13:09;;;;;;;9.80;4.57;;;0.00;97.30;;;;;;5075186;28;20471;-80
2021/11/23 01:15:36;;;;;;;7.33;4.20;;;0.00;97.30;;;;;;5093311;28;20440;-81
2021/11/23 01:18:02;;;;;;;13.73;5.07;;;0.00;97.30;;;;;;5093569;28;20989;-81
2021/11/23 01:20:28;;;;;;;7.47;4.27;;;0.00;97.30;;;;;;5093897;28;20484;-81
2021/11/23 01:22:54;;;;;;;7.60;4.10;;;0.10;97.30;;;;;;5095361;28;20427;-81
2021/11/23 01:25:20;;;;;;;6.53;3.73;;;0.10;97.30;;;;;;5094307;28;20201;-81
2021/11/23 01:27:45;;;;;;;14.70;4.63;;;0.20;97.30;;;;;;5093894;28;20171;-81
2021/11/23 01:30:12;;;;;;;12.33;5.50;;;0.20;97.30;;;;;;5093617;28;20202;-81
2021/11/23 01:32:39;;;;;;;11.30;4.67;;;0.30;97.30;;;;;;5093626;28;20181;-81
2021/11/23 01:35:06;;;;;;;9.50;4.00;;;0.30;97.30;;;;;;5093654;28;20428;-81
2021/11/23 01:37:32;;;;;;;8.97;4.20;;;0.30;97.30;;;;;;5093563;28;20435;-81
2021/11/23 01:39:57;;;;;;;11.77;6.60;;;0.30;97.30;;;;;;5093568;28;20494;-81
2021/11/23 01:42:23;;;;;;;12.90;4.83;;;0.30;97.30;;;;;;5093877;28;20408;-81
2021/11/23 01:44:49;;;;;;;10.60;5.00;;;0.30;97.30;;;;;;5094062;28;20177;-81
2021/11/23 01:47:15;;;;;;;10.83;4.73;;;0.30;97.30;;;;;;5093803;28;20417;-81
2021/11/23 01:49:40;;;;;;;6.40;4.57;;;0.30;97.30;;;;;;5095803;28;20196;-81
2021/11/23 01:52:06;;;;;;;8.80;4.73;;;0.30;97.30;;;;;;5097261;28;20420;-81
2021/11/23 01:54:34;;;;;;;5.00;3.77;;;0.30;97.30;;;;;;5097348;28;20179;-81
2021/11/23 01:57:00;;;;;;;6.73;4.10;;;0.30;97.30;;;;;;5097228;28;20440;-81
2021/11/23 01:59:25;;;;;;;6.57;4.23;;;0.30;97.30;;;;;;5097630;28;20566;-81
2021/11/23 02:01:51;;;;;;;8.90;4.70;;;0.30;97.30;;;;;;5097992;28;20242;-82
2021/11/23 02:04:17;;;;;;;8.17;4.43;;;0.30;97.30;;;;;;5097747;28;20177;-81
2021/11/23 02:06:43;;;;;;;9.33;4.70;;;0.40;97.30;;;;;;5097101;28;20194;-82
2021/11/23 02:09:09;;;;;;;11.10;4.23;;;0.40;97.30;;;;;;5097363;28;20466;-81
2021/11/23 02:11:35;;;;;;;6.90;4.50;;;0.50;97.30;;;;;;5097172;28;20424;-82
2021/11/23 02:14:01;;;;;;;7.50;3.80;;;0.50;97.30;;;;;;5096624;28;20416;-82
2021/11/23 02:16:27;;;;;;;10.37;4.97;;;0.50;97.30;;;;;;5096200;28;20468;-82
2021/11/23 02:18:53;;;;;;;6.33;4.40;;;0.50;97.30;;;;;;5096033;28;20455;-82
2021/11/23 02:21:19;;;;;;;6.07;4.30;;;0.60;97.30;;;;;;5096342;28;20574;-82
2021/11/23 02:23:45;;;;;;;6.83;4.80;;;0.60;97.30;;;;;;5096303;28;20182;-82
2021/11/23 02:26:11;;;;;;;7.70;4.13;;;0.60;97.30;;;;;;5096392;28;20193;-82
2021/11/23 02:28:37;;;;;;;11.57;5.37;;;0.70;97.30;;;;;;5096546;28;20421;-82
2021/11/23 02:31:05;;;;;;;7.10;4.10;;;0.70;97.30;;;;;;5096446;28;20243;-82
2021/11/23 02:33:30;;;;;;;5.47;3.90;;;0.70;97.30;;;;;;5096066;28;20178;-82
2021/11/23 02:36:02;;;;;;;9.63;4.13;;;0.70;97.30;;;;;;5097048;28;20455;-82
2021/11/23 02:38:29;;;;;;;7.90;4.13;;;0.70;97.30;;;;;;5096057;28;20184;-82
2021/11/23 02:40:55;;;;;;;7.97;4.17;;;0.70;97.30;;;;;;5096289;28;20407;-82
2021/11/23 02:43:21;;;;;;;8.07;3.90;;;0.70;97.30;;;;;;5095835;28;20480;-82
2021/11/23 02:45:47;;;;;;;4.43;3.60;;;0.70;97.30;;;;;;5097118;28;20202;-81
2021/11/23 02:48:14;;;;;;;8.57;4.30;;;0.70;97.30;;;;;;5095576;28;20408;-82
2021/11/23 02:50:44;;;;;;;7.37;3.80;;;0.70;97.30;;;;;;5095454;28;20419;-82
2021/11/23 02:53:09;;;;;;;8.53;3.47;;;0.70;97.30;;;;;;5095456;28;20408;-82
2021/11/23 02:55:36;;;;;;;9.03;3.73;;;0.70;97.30;;;;;;5095347;28;20524;-82
2021/11/23 02:58:05;;;;;;;9.20;4.80;;;0.70;97.30;;;;;;5079520;28;20258;-82
2021/11/23 03:00:32;;;;;;;5.83;3.73;;;0.70;97.30;;;;;;5074850;28;20456;-82
2021/11/23 03:02:58;;;;;;;7.60;4.17;;;0.70;97.30;;;;;;5075494;28;20410;-82
2021/11/23 03:05:26;;;;;;;7.97;4.53;;;0.80;97.30;;;;;;5075269;28;20441;-82
2021/11/23 03:07:53;;;;;;;7.90;3.83;;;0.80;97.30;;;;;;5075352;28;20418;-83
2021/11/23 03:10:21;;;;;;;14.63;3.70;;;0.80;97.30;;;;;;5076066;28;20474;-82
2021/11/23 03:12:51;;;;;;;10.90;4.30;;;0.90;97.30;;;;;;5075403;28;20418;-82
2021/11/23 03:15:19;;;;;;;9.73;4.20;;;0.90;97.30;;;;;;5075850;28;20440;-83
2021/11/23 03:17:45;;;;;;;6.70;3.77;;;0.90;97.30;;;;;;5074798;28;20560;-83
2021/11/23 03:20:13;;;;;;;8.30;3.97;;;0.90;97.30;;;;;;5075054;28;20465;-82
2021/11/23 03:22:38;;;;;;;7.53;3.73;;;0.90;97.30;;;;;;5075578;28;20410;-83
2021/11/23 03:25:06;;;;;;;6.90;4.43;;;0.90;97.30;;;;;;5075628;28;20417;-82
2021/11/23 03:27:32;;;;;;;6.90;4.57;;;0.90;97.30;;;;;;5076438;28;20171;-83
2021/11/23 03:29:58;;;;;;;13.67;4.93;;;0.90;97.30;;;;;;5075300;28;20433;-82
2021/11/23 03:32:24;;;;;;;8.07;4.77;;;0.90;97.30;;;;;;5076277;28;21082;-83
2021/11/23 03:34:51;;;;;;;7.27;4.10;;;0.90;97.30;;;;;;5075059;28;20431;-83
2021/11/23 03:37:20;;;;;;;7.90;4.50;;;0.90;97.30;;;;;;5074809;28;20413;-82
2021/11/23 03:39:47;;;;;;;10.37;5.03;;;0.80;97.30;;;;;;5075015;28;20472;-82
2021/11/23 03:42:13;;;;;;;6.67;4.50;;;0.80;97.30;;;;;;5074690;28;20441;-82
2021/11/23 03:44:39;;;;;;;9.20;6.30;;;0.80;97.30;;;;;;5074996;28;21000;-82
2021/11/23 03:47:07;;;;;;;6.80;4.10;;;0.80;97.30;;;;;;5074523;28;20202;-83
2021/11/23 03:49:33;;;;;;;10.80;5.00;;;0.80;97.30;;;;;;5086453;28;20427;-83
2021/11/23 03:51:59;;;;;;;5.90;4.20;;;0.70;97.30;;;;;;5079619;28;20431;-83
2021/11/23 03:54:25;;;;;;;9.77;4.63;;;0.70;97.30;;;;;;5087106;28;20437;-83
2021/11/23 03:56:51;;;;;;;9.53;4.53;;;0.70;97.30;;;;;;5086296;28;20785;-83
2021/11/23 03:59:17;;;;;;;10.70;4.37;;;0.70;97.30;;;;;;5094685;28;20457;-82
2021/11/23 04:01:44;;;;;;;6.77;4.57;;;0.70;97.30;;;;;;5094615;28;20419;-83
2021/11/23 04:04:09;;;;;;;8.33;4.87;;;0.70;97.30;;;;;;5094859;28;20416;-84
2021/11/23 04:06:35;;;;;;;10.87;5.10;;;0.60;97.30;;;;;;5094861;28;20433;-83
2021/11/23 04:09:00;;;;;;;8.93;5.23;;;0.60;97.30;;;;;;5094625;28;20220;-82
2021/11/23 04:11:26;;;;;;;8.07;4.53;;;0.60;97.30;;;;;;5078943;28;20771;-83
2021/11/23 04:13:52;;;;;;;8.77;5.03;;;0.60;97.30;;;;;;5094652;28;20190;-82
2021/11/23 04:16:17;;;;;;;8.20;5.00;;;0.60;97.30;;;;;;5108203;28;20226;-83
2021/11/23 04:18:44;;;;;;;8.90;4.50;;;0.60;97.30;;;;;;5094113;28;20270;-83
2021/11/23 04:21:11;;;;;;;14.10;5.20;;;0.50;97.30;;;;;;5094561;28;20458;-83
2021/11/23 04:23:37;;;;;;;10.93;4.67;;;0.50;97.30;;;;;;5095165;28;20412;-83
2021/11/23 04:26:03;;;;;;;12.47;5.60;;;0.50;97.30;;;;;;5093942;28;20434;-83
2021/11/23 04:28:28;;;;;;;8.30;4.83;;;0.50;97.30;;;;;;5100307;28;20178;-82
2021/11/23 04:30:54;;;;;;;11.67;4.30;;;0.50;97.30;;;;;;5103929;28;20231;-83
2021/11/23 04:33:19;;;;;;;8.20;4.80;;;0.50;97.30;;;;;;5093863;28;20189;-83
2021/11/23 04:35:45;;;;;;;13.90;5.57;;;0.50;97.30;;;;;;5093518;28;20645;-83
2021/11/23 04:38:11;;;;;;;8.40;4.53;;;0.50;97.30;;;;;;5090909;28;20619;-83
2021/11/23 04:40:38;;;;;;;11.70;4.97;;;0.50;97.30;;;;;;5074161;28;20255;-83
2021/11/23 04:43:06;;;;;;;10.57;4.90;;;0.50;97.30;;;;;;5074079;28;20556;-84
2021/11/23 04:45:35;;;;;;;10.33;5.53;;;0.50;97.30;;;;;;5088598;28;20440;-83
2021/11/23 04:48:00;;;;;;;12.83;5.50;;;0.50;97.30;;;;;;5095653;28;20509;-84
2021/11/23 04:50:26;;;;;;;7.50;5.00;;;0.60;97.30;;;;;;5093757;28;20519;-82
2021/11/23 04:52:52;;;;;;;7.67;4.70;;;0.60;97.30;;;;;;5093999;28;20657;-83
2021/11/23 04:55:18;;;;;;;8.67;4.60;;;0.60;97.30;;;;;;5093697;28;20437;-84
2021/11/23 04:57:44;;;;;;;8.63;5.20;;;0.60;97.30;;;;;;5093615;28;20235;-82
2021/11/23 05:00:14;;;;;;;17.37;5.40;;;0.50;97.30;;;;;;5093947;28;20444;-83
2021/11/23 05:02:39;;;;;;;5.00;3.87;;;0.60;97.30;;;;;;5092960;28;20236;-82
2021/11/23 05:05:06;;;;;;;7.90;4.07;;;0.50;97.30;;;;;;5094076;28;20799;-82
2021/11/23 05:07:31;;;;;;;8.80;4.70;;;0.50;97.30;;;;;;5094057;28;20170;-82
2021/11/23 05:09:57;;;;;;;8.00;4.63;;;0.50;97.30;;;;;;5094016;28;20458;-82
2021/11/23 05:12:23;;;;;;;12.27;4.80;;;0.50;97.30;;;;;;5093771;28;20187;-83
2021/11/23 05:14:50;;;;;;;6.40;3.80;;;0.50;97.30;;;;;;5093898;28;20171;-82
2021/11/23 05:17:16;;;;;;;9.20;4.40;;;0.50;97.30;;;;;;5093476;28;20218;-82
2021/11/23 05:19:41;;;;;;;7.80;4.37;;;0.50;97.30;;;;;;5093261;28;20930;-82
2021/11/23 05:22:07;;;;;;;8.60;4.20;;;0.50;97.30;;;;;;5095282;28;20491;-82
2021/11/23 05:24:33;;;;;;;8.83;4.77;;;0.50;97.30;;;;;;5096335;28;20177;-83
2021/11/23 05:26:59;;;;;;;9.30;5.30;;;0.50;97.30;;;;;;5097973;28;20190;-82
2021/11/23 05:29:24;;;;;;;12.57;5.83;;;0.50;97.30;;;;;;5099434;28;20413;-83
2021/11/23 05:31:50;;;;;;;10.70;4.97;;;0.50;97.30;;;;;;5097421;28;20443;-82
2021/11/23 05:34:16;;;;;;;11.67;5.00;;;0.50;97.30;;;;;;5097770;28;20186;-83
2021/11/23 05:36:44;;;;;;;10.90;5.13;;;0.50;97.30;;;;;;5098036;28;20202;-84
2021/11/23 05:39:09;;;;;;;9.43;4.57;;;0.50;97.30;;;;;;5097717;28;20226;-83
2021/11/23 05:41:35;;;;;;;8.43;5.27;;;0.60;97.30;;;;;;5097860;28;20415;-83
2021/11/23 05:44:01;;;;;;;9.10;5.10;;;0.60;97.30;;;;;;5097770;28;20174;-83
2021/11/23 05:46:27;;;;;;;11.77;5.10;;;0.60;97.30;;;;;;5097404;28;20192;-84
2021/11/23 05:48:53;;;;;;;12.57;5.20;;;0.70;97.30;;;;;;5098240;28;20416;-83
2021/11/23 05:51:19;;;;;;;11.70;5.83;;;0.70;97.30;;;;;;5098305;28;20177;-83
2021/11/23 05:53:44;;;;;;;11.97;5.40;;;0.70;97.30;;;;;;5097712;28;20458;-83
2021/11/23 05:56:10;;;;;;;13.83;4.53;;;0.70;97.30;;;;;;5097299;28;20470;-82
2021/11/23 05:58:38;;;;;;;12.33;5.10;;;0.80;97.30;;;;;;5096653;28;20185;-83
2021/11/23 06:01:05;;;;;;;9.00;4.93;;;0.80;97.30;;;;;;5097112;28;20177;-83
2021/11/23 06:03:31;;;;;;;12.53;5.80;;;0.90;97.30;;;;;;5097440;28;20496;-83
2021/11/23 06:05:57;;;;;;;11.63;5.40;;;0.90;97.30;;;;;;5097024;28;20424;-83
2021/11/23 06:08:22;;;;;;;10.03;5.07;;;0.90;97.30;;;;;;5098552;28;20190;-83
2021/11/23 06:10:48;;;;;;;11.53;5.10;;;1.00;97.30;;;;;;5097108;28;20833;-84
2021/11/23 06:13:14;;;;;;;10.50;4.43;;;1.00;97.30;;;;;;5096453;28;20175;-82
2021/11/23 06:15:45;;;;;;;13.00;5.77;;;1.00;97.30;;;;;;5096750;28;20198;-83
2021/11/23 06:18:13;;;;;;;17.57;6.10;;;1.00;97.30;;;;;;5096637;28;20308;-83
2021/11/23 06:20:42;;;;;;;11.37;6.27;;;1.10;97.30;;;;;;5096305;28;20539;-84
2021/11/23 06:23:07;;;;;;;11.87;5.37;;;1.10;97.30;;;;;;5096445;28;20522;-83
2021/11/23 06:25:33;;;;;;;12.20;5.40;;;1.10;97.30;;;;;;5095873;28;20437;-84
2021/11/23 06:27:59;;;;;;;9.90;4.93;;;1.20;97.30;;;;;;5094290;28;20175;-84
2021/11/23 06:30:24;;;;;;;15.10;5.70;;;1.20;97.30;;;;;;5094333;28;20221;-83
2021/11/23 06:32:50;;;;;;;10.87;4.60;;;1.20;97.30;;;;;;5094370;28;20209;-84
2021/11/23 06:35:16;;;;;;;13.20;5.67;;;1.30;97.30;;;;;;5093191;28;20290;-84
2021/11/23 06:37:42;;;;;;;11.90;4.30;;;1.30;97.30;;;;;;5094123;28;20208;-85
2021/11/23 06:40:09;;;;;;;10.17;4.73;;;1.30;97.30;;;;;;5095283;28;20285;-84
2021/11/23 06:42:36;;;;;;;17.60;5.20;;;1.40;97.30;;;;;;5094934;28;20175;-85
2021/11/23 06:45:03;;;;;;;12.60;5.47;;;1.40;97.30;;;;;;5095246;28;20443;-84
2021/11/23 06:47:29;;;;;;;13.60;5.50;;;1.40;97.30;;;;;;5095032;28;20424;-84
2021/11/23 06:49:55;;;;;;;13.50;5.87;;;1.40;97.30;;;;;;5095367;28;20416;-84
2021/11/23 06:52:22;;;;;;;12.30;5.40;;;1.40;97.30;;;;;;5095486;28;20181;-84
2021/11/23 06:54:48;;;;;;;8.77;5.23;;;1.50;97.30;;;;;;5096788;28;20166;-84
2021/11/23 06:57:14;;;;;;;12.80;5.17;;;1.50;97.30;;;;;;5090654;28;20413;-84
2021/11/23 06:59:40;;;;;;;12.60;5.50;;;1.50;97.30;;;;;;5093275;28;20447;-84
2021/11/23 07:02:06;;;;;;;7.63;4.43;;;1.60;97.30;;;;;;5093424;28;20179;-84
2021/11/23 07:04:32;;;;;;;11.77;5.30;;;1.60;97.30;;;;;;5094781;28;20417;-85
2021/11/23 07:06:58;;;;;;;11.30;6.00;;;1.60;97.30;;;;;;5095183;28;20511;-83
2021/11/23 07:09:24;;;;;;;9.77;6.00;;;1.60;97.30;;;;;;5094290;28;20452;-84
2021/11/23 07:11:49;;;;;;;12.83;5.67;;;1.60;97.30;;;;;;5092962;28;20265;-85
2021/11/23 07:14:16;;;;;;;16.90;6.00;;;1.70;97.30;;;;;;5095225;28;20174;-84
2021/11/23 07:16:42;;;;;;;13.10;7.33;;;1.70;97.30;;;;;;5093391;28;20258;-84
2021/11/23 07:19:07;;;;;;;11.63;6.30;;;1.70;97.30;;;;;;5092269;28;20503;-84
2021/11/23 07:21:34;;;;;;;8.87;4.43;;;1.80;97.30;;;;;;5092917;28;20257;-85
2021/11/23 07:24:00;;;;;;;11.97;5.70;;;1.80;97.30;;;;;;5092929;28;20167;-85
2021/11/23 07:26:27;;;;;;;10.07;5.33;;;1.80;97.30;;;;;;5092603;28;20566;-85
2021/11/23 07:28:53;;;;;;;9.73;5.00;;;1.80;97.30;;;;;;5094293;28;20167;-85
2021/11/23 07:31:19;;;;;;;10.00;4.50;;;1.90;97.30;;;;;;5092525;28;20424;-84
2021/11/23 07:33:44;;;;;;;11.87;5.03;;;1.90;97.30;;;;;;5092954;28;20265;-85
2021/11/23 07:36:10;;;;;;;9.70;5.03;;;1.90;97.30;;;;;;5092703;28;20205;-85
2021/11/23 07:38:36;;;;;;;13.93;6.10;;;1.90;97.30;;;;;;5092357;28;20559;-85
2021/11/23 07:41:01;;;;;;;12.70;5.00;;;1.90;97.30;;;;;;5092802;28;20182;-85
2021/11/23 07:43:27;;;;;;;13.80;5.77;;;1.90;97.30;;;;;;5092413;28;20534;-85
2021/11/23 07:45:52;;;;;;;14.03;5.70;;;1.90;97.30;;;;;;5092708;28;20198;-85
2021/11/23 07:48:18;;;;;;;16.17;6.40;;;1.90;97.30;;;;;;5092085;28;20263;-85
2021/11/23 07:50:43;;;;;;;11.47;6.07;;;1.90;97.30;;;;;;5092501;28;20802;-85
2021/11/23 07:53:09;;;;;;;11.87;5.60;;;1.90;97.30;;;;;;5092191;28;20189;-85
2021/11/23 07:55:35;;;;;;;11.37;5.63;;;1.90;97.30;;;;;;5092322;28;20240;-85
2021/11/23 07:58:01;;;;;;;20.37;6.23;;;1.90;97.30;;;;;;5092464;28;20242;-84
2021/11/23 08:00:28;;;;;;;11.30;5.60;;;1.90;97.30;;;;;;5092515;28;20498;-85
2021/11/23 08:02:54;;;;;;;21.97;6.40;;;2.00;97.30;;;;;;5092404;28;21010;-85
2021/11/23 08:05:21;;;;;;;12.03;6.20;;;2.00;97.30;;;;;;5092116;28;20447;-86
2021/11/23 08:07:46;;;;;;;13.90;5.70;;;2.00;97.30;;;;;;5093747;28;20404;-85
2021/11/23 08:10:12;;;;;;;11.73;5.43;;;2.00;97.30;;;;;;5092337;28;20835;-85
2021/11/23 08:12:37;;;;;;;13.80;5.77;;;2.00;97.30;;;;;;5092345;28;20186;-85
2021/11/23 08:15:05;;;;;;;11.43;5.70;;;2.10;97.30;;;;;;5092424;28;20182;-85
2021/11/23 08:17:31;;;;;;;9.70;4.30;;;2.10;97.30;;;;;;5091934;28;20725;-85
2021/11/23 08:19:57;;;;;;;15.57;6.27;;;2.10;97.30;;;;;;5092194;28;20490;-86
2021/11/23 08:22:23;;;;;;;10.43;5.17;;;2.20;97.30;;;;;;5091968;28;20182;-85
2021/11/23 08:24:49;;;;;;;12.53;6.83;;;2.20;97.30;;;;;;5091932;28;20759;-85
2021/11/23 08:27:15;;;;;;;18.57;6.57;;;2.30;97.30;;;;;;5092190;28;20409;-85
2021/11/23 08:29:40;;;;;;;11.60;5.10;;;2.40;97.30;;;;;;5091916;28;20427;-85
2021/11/23 08:32:06;;;;;;;18.17;7.73;;;2.50;97.30;;;;;;5091662;28;20444;-85
2021/11/23 08:34:32;;;;;;;15.33;7.30;;;2.60;97.30;;;;;;5091700;28;20182;-84
2021/11/23 08:36:58;;;;;;;13.43;5.83;;;2.60;97.30;;;;;;5091689;28;20447;-85
2021/11/23 08:39:23;;;;;;;16.83;6.73;;;2.70;97.30;;;;;;5091701;28;20297;-85
2021/11/23 08:41:49;;;;;;;17.43;5.50;;;2.70;97.30;;;;;;5092014;28;20175;-85
2021/11/23 08:44:16;;;;;;;16.97;6.90;;;2.70;97.30;;;;;;5091992;28;20174;-85
2021/11/23 08:46:41;;;;;;;13.07;6.27;;;2.70;97.30;;;;;;5092005;28;20202;-85
2021/11/23 08:49:07;;;;;;;18.63;7.83;;;2.70;97.30;;;;;;5091805;28;20428;-85
2021/11/23 08:51:36;;;;;;;13.70;5.77;;;2.70;97.30;;;;;;5092053;28;20289;-85
2021/11/23 08:54:04;;;;;;;16.67;6.47;;;2.70;97.30;;;;;;5091941;28;20428;-85
2021/11/23 08:56:35;;;;;;;18.30;6.80;;;2.70;97.30;;;;;;5091912;28;20527;-85
2021/11/23 08:59:04;;;;;;;16.53;7.07;;;2.70;97.30;;;;;;5092814;28;20462;-85
2021/11/23 09:01:30;;;;;;;14.53;6.40;;;2.80;97.30;;;;;;5092021;28;20840;-85
2021/11/23 09:03:55;;;;;;;14.40;6.53;;;2.80;97.30;;;;;;5075502;28;20441;-85
2021/11/23 09:06:26;;;;;;;16.43;7.07;;;2.80;97.30;;;;;;5075467;28;20444;-85
2021/11/23 09:08:55;;;;;;;13.97;6.37;;;2.80;97.30;;;;;;5076122;28;20179;-85
2021/11/23 09:11:23;;;;;;;11.97;6.30;;;2.80;97.30;;;;;;5075976;28;20634;-85
2021/11/23 09:13:48;;;;;;;11.37;5.60;;;2.90;97.30;;;;;;5075448;28;20496;-85
2021/11/23 09:16:14;;;;;;;19.93;7.67;;;2.80;97.30;;;;;;5075466;28;20582;-85
2021/11/23 09:18:40;;;;;;;12.80;5.80;;;2.90;97.30;;;;;;5075266;28;20182;-85
2021/11/23 09:21:05;;;;;;;12.13;5.90;;;2.90;97.30;;;;;;5075856;28;20224;-85
2021/11/23 09:23:31;;;;;;;14.33;6.03;;;3.00;97.30;;;;;;5075407;28;20180;-85
2021/11/23 09:25:56;;;;;;;13.03;7.30;;;3.00;97.30;;;;;;5075423;28;20248;-85
2021/11/23 09:28:22;;;;;;;15.30;6.50;;;3.10;97.30;;;;;;5075400;28;20246;-85
2021/11/23 09:30:48;;;;;;;13.70;7.90;;;3.10;97.30;;;;;;5075457;28;20225;-85
2021/11/23 09:33:15;;;;;;;13.13;6.73;;;3.10;97.30;;;;;;5074665;28;20203;-85
2021/11/23 09:35:40;;;;;;;11.60;5.00;;;3.20;97.30;;;;;;5076461;28;20194;-85
2021/11/23 09:38:06;;;;;;;10.50;5.60;;;3.20;97.30;;;;;;5075084;28;20902;-85
2021/11/23 09:40:33;;;;;;;16.60;6.20;;;3.30;97.30;;;;;;5075879;28;20203;-85
2021/11/23 09:42:58;;;;;;;14.40;5.70;;;3.30;97.30;;;;;;5077076;28;20250;-85
2021/11/23 09:45:24;;;;;;;13.37;5.73;;;3.30;97.30;;;;;;5074545;28;20484;-85
2021/11/23 09:47:50;;;;;;;12.93;5.33;;;3.40;97.30;;;;;;5074895;28;20473;-85
2021/11/23 09:50:16;;;;;;;14.70;6.30;;;3.40;97.30;;;;;;5075146;28;20186;-84
2021/11/23 09:52:43;;;;;;;13.07;5.83;;;3.40;97.30;;;;;;5075037;28;20186;-85
2021/11/23 09:55:11;;;;;;;8.17;4.23;;;3.50;97.30;;;;;;5076009;28;20698;-85
2021/11/23 09:57:37;;;;;;;16.87;5.63;;;3.50;97.30;;;;;;5074498;28;20774;-85
2021/11/23 10:00:21;;;;;;;19.20;5.00;;;3.50;97.30;;;;;;5086983;28;20541;-85
2021/11/23 10:02:47;;;;;;;12.60;6.13;;;3.60;97.30;;;;;;5094718;28;20274;-85
2021/11/23 10:05:15;;;;;;;12.10;5.00;;;3.60;97.30;;;;;;5094741;28;20469;-85
2021/11/23 10:07:43;;;;;;;11.50;5.53;;;3.60;97.30;;;;;;5094900;28;20174;-85
2021/11/23 10:10:21;;;;;;;12.60;5.50;;;3.70;97.30;;;;;;5094824;28;20838;-85
2021/11/23 10:12:54;;;;;;;9.67;5.20;;;3.80;97.30;;;;;;5094811;28;20443;-85
2021/11/23 10:15:34;;;;;;;14.73;5.07;;;3.80;97.30;;;;;;5094356;28;20527;-85
2021/11/23 10:18:25;;;;;;;11.17;5.20;;;3.80;97.30;;;;;;5094606;28;20483;-85
2021/11/23 10:20:55;;;;;;;12.93;5.13;;;3.80;97.30;;;;;;5094348;28;20487;-85
2021/11/23 10:23:23;;;;;;;14.00;6.10;;;3.90;97.30;;;;;;5096156;28;20420;-85
2021/11/23 10:26:03;;;;;;;13.33;6.00;;;3.90;97.30;;;;;;5094872;28;20755;-85
2021/11/23 10:28:29;;;;;;;11.90;5.30;;;4.00;97.30;;;;;;5093944;28;20417;-84
2021/11/23 10:30:57;;;;;;;12.43;5.80;;;4.00;97.30;;;;;;5094521;28;20413;-85
2021/11/23 10:33:23;;;;;;;10.87;5.50;;;4.00;97.30;;;;;;5094149;28;20424;-85
2021/11/23 10:35:52;;;;;;;17.20;5.00;;;4.10;97.30;;;;;;5094173;28;20436;-85
2021/11/23 10:38:20;;;;;;;10.17;5.23;;;4.20;97.30;;;;;;5096098;28;20440;-86
2021/11/23 10:40:47;;;;;;;21.60;5.70;;;4.30;97.30;;;;;;5094100;28;21012;-85
2021/11/23 10:43:16;;;;;;;14.50;6.47;;;4.30;97.30;;;;;;5094164;28;20444;-84
2021/11/23 10:45:51;;;;;;;11.63;5.90;;;4.30;97.30;;;;;;5094211;28;20856;-85
2021/11/23 10:48:20;;;;;;;15.93;5.90;;;4.30;97.30;;;;;;5093704;28;20427;-84
2021/11/23 10:51:08;;;;;;;10.43;5.20;;;4.40;97.30;;;;;;5094077;28;20791;-84
2021/11/23 10:53:35;;;;;;;11.77;5.40;;;4.40;97.30;;;;;;5093991;28;20832;-84
2021/11/23 10:56:10;;;;;;;13.43;5.87;;;4.40;97.30;;;;;;5093690;28;20463;-84
2021/11/23 10:58:36;;;;;;;12.33;5.50;;;4.40;97.30;;;;;;5093832;28;20925;-84
2021/11/23 11:01:04;;;;;;;12.90;5.60;;;4.40;97.30;;;;;;5093578;28;20539;-84
2021/11/23 11:03:31;;;;;;;10.40;5.50;;;4.40;97.30;;;;;;5094000;28;20202;-84
2021/11/23 11:05:59;;;;;;;12.57;6.30;;;4.40;97.30;;;;;;5090912;28;20440;-83
2021/11/23 11:08:28;;;;;;;12.13;5.10;;;4.40;97.30;;;;;;5093429;28;20409;-84
2021/11/23 11:10:54;;;;;;;14.70;6.63;;;4.40;97.30;;;;;;5093797;28;20465;-84
2021/11/23 11:13:22;;;;;;;11.93;5.73;;;4.40;97.30;;;;;;5093140;28;20416;-84
2021/11/23 11:15:59;;;;;;;13.83;6.70;;;4.40;97.30;;;;;;5093472;28;20455;-84
2021/11/23 11:18:25;;;;;;;13.73;6.03;;;4.50;97.30;;;;;;5093639;28;20561;-84
2021/11/23 11:20:57;;;;;;;13.63;7.97;;;4.50;97.30;;;;;;5093378;28;20461;-85
2021/11/23 11:23:27;;;;;;;11.97;6.10;;;4.60;97.30;;;;;;5092278;28;20409;-84
2021/11/23 11:26:00;;;;;;;11.77;5.87;;;4.70;97.30;;;;;;5093823;28;20432;-84
2021/11/23 11:28:58;;;;;;;13.87;7.27;;;4.80;97.30;;;;;;5093462;28;20424;-84
2021/11/23 11:31:47;;;;;;;14.50;6.27;;;4.90;97.30;;;;;;5074691;28;20425;-84
2021/11/23 11:34:28;;;;;;;15.40;6.93;;;5.00;97.30;;;;;;5092847;28;20783;-85
2021/11/23 11:37:19;;;;;;;18.27;7.40;;;5.00;97.30;;;;;;5093026;28;20524;-84
2021/11/23 11:39:54;;;;;;;13.07;5.90;;;5.10;97.30;;;;;;5092951;28;20962;-84
2021/11/23 11:42:20;;;;;;;14.30;7.00;;;5.20;97.30;;;;;;5092525;28;20412;-84
2021/11/23 11:44:48;;;;;;;16.20;7.10;;;5.30;97.30;;;;;;5092871;28;20404;-84
2021/11/23 11:47:19;;;;;;;23.50;9.03;;;5.30;97.30;;;;;;5092670;28;20185;-85
2021/11/23 11:49:51;;;;;;;13.97;6.87;;;5.40;97.30;;;;;;5092423;28;20412;-84
2021/11/23 11:52:18;;;;;;;18.13;6.80;;;5.40;97.30;;;;;;5092758;28;20419;-85
2021/11/23 11:54:45;;;;;;;14.10;6.47;;;5.40;97.30;;;;;;5092821;28;20481;-84
2021/11/23 11:57:42;;;;;;;16.07;7.10;;;5.40;97.30;;;;;;5092471;28;20502;-85
2021/11/23 12:00:23;;;;;;;21.30;7.77;;;5.40;97.30;;;;;;5091644;28;20452;-85
2021/11/23 12:02:49;;;;;;;16.73;7.50;;;5.50;97.30;;;;;;5092777;28;20758;-85
2021/11/23 12:05:16;;;;;;;13.70;7.43;;;5.60;97.30;;;;;;5091846;28;20429;-85
2021/11/23 12:07:44;;;;;;;14.33;7.00;;;5.50;97.30;;;;;;5092352;28;20417;-85
2021/11/23 12:10:28;;;;;;;17.27;7.37;;;5.60;97.30;;;;;;5092526;28;20413;-85
2021/11/23 12:12:57;;;;;;;17.17;7.10;;;5.50;97.30;;;;;;5092784;28;20443;-87
2021/11/23 12:15:44;;;;;;;15.53;6.80;;;5.50;97.30;;;;;;5092705;28;20445;-86
2021/11/23 12:18:36;;;;;;;22.43;8.80;;;5.40;97.30;;;;;;5090721;28;20470;-85
2021/11/23 12:21:08;;;;;;;21.03;8.87;;;5.30;97.30;;;;;;5072067;28;20479;-85
2021/11/23 12:23:37;;;;;;;15.40;7.57;;;5.20;97.30;;;;;;5071709;28;20413;-85
2021/11/23 12:26:13;;;;;;;21.03;9.00;;;5.30;97.30;;;;;;5071382;28;20464;-85
2021/11/23 12:28:41;;;;;;;19.77;9.07;;;5.40;97.30;;;;;;5073818;28;20504;-85
2021/11/23 12:31:11;;;;;;;22.03;9.10;;;5.40;97.30;;;;;;5091929;28;20416;-85
2021/11/23 12:33:58;;;;;;;18.77;9.90;;;5.50;97.30;;;;;;5090426;28;20505;-85
2021/11/23 12:36:24;;;;;;;16.93;7.83;;;5.50;97.30;;;;;;5091893;28;20980;-85
2021/11/23 12:38:52;;;;;;;20.30;8.77;;;5.50;97.30;;;;;;5091389;28;20427;-86
2021/11/23 12:41:19;;;;;;;21.30;8.67;;;5.50;97.30;;;;;;5092025;28;20806;-86
2021/11/23 12:43:47;;;;;;;18.07;8.57;;;5.50;97.30;;;;;;5092182;28;20419;-87
2021/11/23 12:46:20;;;;;;;15.83;7.93;;;5.60;97.30;;;;;;5091978;28;20433;-84
2021/11/23 12:48:50;;;;;;;18.93;9.17;;;5.60;97.30;;;;;;5091491;28;20504;-87
2021/11/23 12:51:24;;;;;;;18.53;8.80;;;5.70;97.30;;;;;;5092644;28;20783;-86
2021/11/23 12:54:02;;;;;;;16.63;8.23;;;5.60;97.30;;;;;;5090999;28;20929;-85